Ripon, Wisconsin
Current Conditions -  °F | °C
As of 12:53 AM on Monday 24 Nov 2014 (Local Time) from KOSH Reporting Station
Light Rain Light Rain  
Wind Chill:   Ceiling: 300
Heat Index:   Visibility: 0.5mi
Dew Point:   Wind: 0mph
Humidity: 96%   Direction: NA
Pressure: 29.08"   Gusts: NA
Location:  43.85°N, 88.84°W
Report Text: KOSH 240653Z 00000KT 1/2SM R36/2800V3000FT -RA FG VV003 06/05 A2908 RMK AO2 SLP850 P0002 T00560050
Loading
Personal Weather Stations






























Interactive Weather Map New forecast layout! Learn more

10-Day Weather Forecast

Advertisements
Track Severe Weather on mobile